Historical Weather Data

Soule Park Golf Course
1033 East Ojai Ave
Ojai, CA 93023
Date ET
(Inches)
Rain
(Inches)
Temp °F
Humidity
Avg
Wind MPH
Avg
Solar Wm2
Avg
High Ave Low
11/1/18 0.11 0.00 88.6 64.1 44.1 36 1.9 148
11/2/18 0.13 0.00 89.2 67.7 49.8 37 2.4 164
11/3/18 0.12 0.00 91.0 68.5 48.7 33 2.3 161
11/4/18 0.10 0.00 88.9 65.7 50.5 42 1.7 130
11/5/18 0.09 0.00 78.0 60.0 44.9 66 1.7 150
11/6/18 0.08 0.00 76.7 60.4 49.2 79 1.6 136
11/7/18 0.07 0.00 73.0 57.9 44.2 83 1.9 140
11/8/18 0.08 0.00 80.8 60.8 45.4 57 2.4 105
11/9/18 0.12 0.00 83.1 59.2 41.4 23 2.8 153
11/10/18 0.10 0.00 77.5 54.3 35.0 31 2.4 144
11/11/18 0.09 0.00 81.8 54.5 34.6 34 2.1 135
11/12/18 0.10 0.00 81.1 55.1 35.1 29 2.4 138
11/13/18 0.09 0.00 77.9 55.0 34.4 34 2.2 126
11/14/18 0.09 0.00 82.0 58.8 40.0 32 2.2 128
11/15/18 0.09 0.00 82.4 58.6 39.5 33 2.3 122
11/16/18 0.08 0.00 79.4 57.5 41.4 44 1.5 117
11/17/18 0.06 0.00 72.3 54.8 40.1 63 1.3 101
11/18/18 0.06 0.00 75.2 55.7 43.2 66 1.5 87
11/19/18 0.04 0.00 68.5 52.7 42.0 70 1.6 61
11/20/18 0.07 0.00 77.0 53.7 38.4 53 1.6 100
11/21/18 0.05 0.27 71.1 55.0 38.8 73 1.5 83
11/22/18 0.05 0.07 67.1 56.9 47.0 85 1.8 94
11/23/18 0.05 0.00 72.9 55.7 42.2 78 2.2 92
11/24/18 0.05 0.00 75.5 57.9 44.6 76 2.0 93
11/25/18 0.05 0.00 78.0 57.3 44.8 72 1.3 83
11/26/18 0.06 0.00 77.7 57.8 43.1 61 1.6 92
11/27/18 0.06 0.00 75.1 57.1 43.1 63 1.5 87
11/28/18 0.03 0.34 67.2 54.4 40.9 83 1.1 53
11/29/18 0.04 1.38 61.7 54.5 46.7 92 2.8 68
11/30/18 0.05 0.01 66.5 52.4 42.2 72 2.3 91